sensor_id;sensor_type;location;lat;lon;timestamp;temperature;humidity
67901;DHT22;54700;51.796;10.956;2023-08-06T00:00:40;14.60;99.90
67901;DHT22;54700;51.796;10.956;2023-08-06T00:03:07;14.60;99.90
67901;DHT22;54700;51.796;10.956;2023-08-06T00:05:34;14.70;99.90
67901;DHT22;54700;51.796;10.956;2023-08-06T00:08:01;14.70;99.90
67901;DHT22;54700;51.796;10.956;2023-08-06T00:10:28;14.70;99.90
67901;DHT22;54700;51.796;10.956;2023-08-06T00:12:56;14.70;99.90
67901;DHT22;54700;51.796;10.956;2023-08-06T00:15:23;14.70;99.90
67901;DHT22;54700;51.796;10.956;2023-08-06T00:17:51;14.70;99.90
67901;DHT22;54700;51.796;10.956;2023-08-06T00:20:18;14.60;99.90
67901;DHT22;54700;51.796;10.956;2023-08-06T00:22:46;14.70;99.90
67901;DHT22;54700;51.796;10.956;2023-08-06T00:25:13;14.70;99.90
67901;DHT22;54700;51.796;10.956;2023-08-06T00:27:40;14.70;99.90
67901;DHT22;54700;51.796;10.956;2023-08-06T00:30:08;14.70;99.90
67901;DHT22;54700;51.796;10.956;2023-08-06T00:32:38;14.60;99.90
67901;DHT22;54700;51.796;10.956;2023-08-06T00:35:14;14.50;99.90
67901;DHT22;54700;51.796;10.956;2023-08-06T00:37:43;14.50;99.90
67901;DHT22;54700;51.796;10.956;2023-08-06T00:40:11;14.50;99.90
67901;DHT22;54700;51.796;10.956;2023-08-06T00:42:38;14.50;99.90
67901;DHT22;54700;51.796;10.956;2023-08-06T00:45:06;14.60;99.90
67901;DHT22;54700;51.796;10.956;2023-08-06T00:47:36;14.60;99.90
67901;DHT22;54700;51.796;10.956;2023-08-06T00:50:08;14.60;99.90
67901;DHT22;54700;51.796;10.956;2023-08-06T00:52:37;14.60;99.90
67901;DHT22;54700;51.796;10.956;2023-08-06T00:55:07;14.60;99.90
67901;DHT22;54700;51.796;10.956;2023-08-06T01:02:47;14.40;99.90
67901;DHT22;54700;51.796;10.956;2023-08-06T01:05:15;14.50;99.90
67901;DHT22;54700;51.796;10.956;2023-08-06T01:07:45;14.50;99.90
67901;DHT22;54700;51.796;10.956;2023-08-06T01:10:24;14.50;99.90
67901;DHT22;54700;51.796;10.956;2023-08-06T01:13:01;14.50;99.90
67901;DHT22;54700;51.796;10.956;2023-08-06T01:15:37;14.50;99.90
67901;DHT22;54700;51.796;10.956;2023-08-06T01:18:11;14.60;99.90
67901;DHT22;54700;51.796;10.956;2023-08-06T01:20:39;14.60;99.90
67901;DHT22;54700;51.796;10.956;2023-08-06T01:23:06;14.50;99.90
67901;DHT22;54700;51.796;10.956;2023-08-06T01:25:34;14.50;99.90
67901;DHT22;54700;51.796;10.956;2023-08-06T01:28:08;14.50;99.90
67901;DHT22;54700;51.796;10.956;2023-08-06T01:30:42;14.50;99.90
67901;DHT22;54700;51.796;10.956;2023-08-06T01:33:09;14.40;99.90
67901;DHT22;54700;51.796;10.956;2023-08-06T01:35:44;14.40;99.90
67901;DHT22;54700;51.796;10.956;2023-08-06T01:38:14;14.40;99.90
67901;DHT22;54700;51.796;10.956;2023-08-06T01:40:41;14.40;99.90
67901;DHT22;54700;51.796;10.956;2023-08-06T01:43:08;14.40;99.90
67901;DHT22;54700;51.796;10.956;2023-08-06T01:45:35;14.40;99.90
67901;DHT22;54700;51.796;10.956;2023-08-06T01:48:03;14.40;99.90
67901;DHT22;54700;51.796;10.956;2023-08-06T01:50:30;14.40;99.90
67901;DHT22;54700;51.796;10.956;2023-08-06T01:52:58;14.40;99.90
67901;DHT22;54700;51.796;10.956;2023-08-06T01:55:25;14.40;99.90
67901;DHT22;54700;51.796;10.956;2023-08-06T01:57:52;14.30;99.90
67901;DHT22;54700;51.796;10.956;2023-08-06T02:00:19;14.30;99.90
67901;DHT22;54700;51.796;10.956;2023-08-06T02:02:47;14.20;99.90
67901;DHT22;54700;51.796;10.956;2023-08-06T02:05:14;14.20;99.90
67901;DHT22;54700;51.796;10.956;2023-08-06T02:07:41;14.30;99.90
67901;DHT22;54700;51.796;10.956;2023-08-06T02:10:09;14.30;99.90
67901;DHT22;54700;51.796;10.956;2023-08-06T02:12:36;14.30;99.90
67901;DHT22;54700;51.796;10.956;2023-08-06T02:15:04;14.40;99.90
67901;DHT22;54700;51.796;10.956;2023-08-06T02:17:34;14.40;99.90
67901;DHT22;54700;51.796;10.956;2023-08-06T02:20:02;14.50;99.90
67901;DHT22;54700;51.796;10.956;2023-08-06T02:22:29;14.50;99.90
67901;DHT22;54700;51.796;10.956;2023-08-06T02:24:56;14.50;99.90
67901;DHT22;54700;51.796;10.956;2023-08-06T02:27:24;14.40;99.90
67901;DHT22;54700;51.796;10.956;2023-08-06T02:29:56;14.40;99.90
67901;DHT22;54700;51.796;10.956;2023-08-06T02:32:23;14.40;99.90
67901;DHT22;54700;51.796;10.956;2023-08-06T02:34:55;14.40;99.90
67901;DHT22;54700;51.796;10.956;2023-08-06T02:37:24;14.40;99.90
67901;DHT22;54700;51.796;10.956;2023-08-06T02:39:53;14.40;99.90
67901;DHT22;54700;51.796;10.956;2023-08-06T02:42:20;14.40;99.90
67901;DHT22;54700;51.796;10.956;2023-08-06T02:44:50;14.40;99.90
67901;DHT22;54700;51.796;10.956;2023-08-06T02:47:17;14.40;99.90
67901;DHT22;54700;51.796;10.956;2023-08-06T02:49:44;14.40;99.90
67901;DHT22;54700;51.796;10.956;2023-08-06T02:52:11;14.30;99.90
67901;DHT22;54700;51.796;10.956;2023-08-06T02:54:38;14.30;99.90
67901;DHT22;54700;51.796;10.956;2023-08-06T02:57:06;14.30;99.90
67901;DHT22;54700;51.796;10.956;2023-08-06T02:59:33;14.40;99.90
67901;DHT22;54700;51.796;10.956;2023-08-06T03:02:01;14.40;99.90
67901;DHT22;54700;51.796;10.956;2023-08-06T03:04:28;14.40;99.90
67901;DHT22;54700;51.796;10.956;2023-08-06T03:06:55;14.40;99.90
67901;DHT22;54700;51.796;10.956;2023-08-06T03:09:22;14.40;99.90
67901;DHT22;54700;51.796;10.956;2023-08-06T03:11:55;14.40;99.90
67901;DHT22;54700;51.796;10.956;2023-08-06T03:14:22;14.30;99.90
67901;DHT22;54700;51.796;10.956;2023-08-06T03:16:49;14.30;99.90
67901;DHT22;54700;51.796;10.956;2023-08-06T03:19:17;14.30;99.90
67901;DHT22;54700;51.796;10.956;2023-08-06T03:21:47;14.30;99.90
67901;DHT22;54700;51.796;10.956;2023-08-06T03:24:14;14.30;99.90
67901;DHT22;54700;51.796;10.956;2023-08-06T03:26:41;14.30;99.90
67901;DHT22;54700;51.796;10.956;2023-08-06T03:29:08;14.30;99.90
67901;DHT22;54700;51.796;10.956;2023-08-06T03:31:35;14.40;99.90
67901;DHT22;54700;51.796;10.956;2023-08-06T03:34:04;14.40;99.90
67901;DHT22;54700;51.796;10.956;2023-08-06T03:36:33;14.30;99.90
67901;DHT22;54700;51.796;10.956;2023-08-06T03:39:00;14.30;99.90
67901;DHT22;54700;51.796;10.956;2023-08-06T03:41:27;14.30;99.90
67901;DHT22;54700;51.796;10.956;2023-08-06T03:43:54;14.30;99.90
67901;DHT22;54700;51.796;10.956;2023-08-06T03:46:20;14.30;99.90
67901;DHT22;54700;51.796;10.956;2023-08-06T03:48:48;14.30;99.90
67901;DHT22;54700;51.796;10.956;2023-08-06T03:51:15;14.20;99.90
67901;DHT22;54700;51.796;10.956;2023-08-06T03:53:46;14.20;99.90
67901;DHT22;54700;51.796;10.956;2023-08-06T03:56:13;14.20;99.90
67901;DHT22;54700;51.796;10.956;2023-08-06T03:58:40;14.30;99.90
67901;DHT22;54700;51.796;10.956;2023-08-06T04:01:07;14.30;99.90
67901;DHT22;54700;51.796;10.956;2023-08-06T04:03:34;14.30;99.90
67901;DHT22;54700;51.796;10.956;2023-08-06T04:06:03;14.30;99.90
67901;DHT22;54700;51.796;10.956;2023-08-06T04:08:30;14.30;99.90
67901;DHT22;54700;51.796;10.956;2023-08-06T04:10:58;14.30;99.90
67901;DHT22;54700;51.796;10.956;2023-08-06T04:13:25;14.20;99.90
67901;DHT22;54700;51.796;10.956;2023-08-06T04:15:52;14.20;99.90
67901;DHT22;54700;51.796;10.956;2023-08-06T04:21:03;14.20;99.90
67901;DHT22;54700;51.796;10.956;2023-08-06T04:23:30;14.30;99.90
67901;DHT22;54700;51.796;10.956;2023-08-06T04:25:58;14.30;99.90
67901;DHT22;54700;51.796;10.956;2023-08-06T04:28:26;14.30;99.90
67901;DHT22;54700;51.796;10.956;2023-08-06T04:30:55;14.30;99.90
67901;DHT22;54700;51.796;10.956;2023-08-06T04:33:22;14.30;99.90
67901;DHT22;54700;51.796;10.956;2023-08-06T04:35:55;14.30;99.90
67901;DHT22;54700;51.796;10.956;2023-08-06T04:38:23;14.20;99.90
67901;DHT22;54700;51.796;10.956;2023-08-06T04:40:52;14.20;99.90
67901;DHT22;54700;51.796;10.956;2023-08-06T04:43:21;14.20;99.90
67901;DHT22;54700;51.796;10.956;2023-08-06T04:45:48;14.20;99.90
67901;DHT22;54700;51.796;10.956;2023-08-06T04:48:16;14.20;99.90
67901;DHT22;54700;51.796;10.956;2023-08-06T04:50:44;14.20;99.90
67901;DHT22;54700;51.796;10.956;2023-08-06T04:53:12;14.30;99.90
67901;DHT22;54700;51.796;10.956;2023-08-06T04:55:39;14.30;99.90
67901;DHT22;54700;51.796;10.956;2023-08-06T04:58:08;14.30;99.90
67901;DHT22;54700;51.796;10.956;2023-08-06T05:00:38;14.30;99.90
67901;DHT22;54700;51.796;10.956;2023-08-06T05:03:05;14.30;99.90
67901;DHT22;54700;51.796;10.956;2023-08-06T05:05:33;14.30;99.90
67901;DHT22;54700;51.796;10.956;2023-08-06T05:08:00;14.30;99.90
67901;DHT22;54700;51.796;10.956;2023-08-06T05:10:27;14.40;99.90
67901;DHT22;54700;51.796;10.956;2023-08-06T05:12:55;14.50;99.90
67901;DHT22;54700;51.796;10.956;2023-08-06T05:15:27;14.50;99.90
67901;DHT22;54700;51.796;10.956;2023-08-06T05:17:58;14.60;99.90
67901;DHT22;54700;51.796;10.956;2023-08-06T05:20:25;14.60;99.90
67901;DHT22;54700;51.796;10.956;2023-08-06T05:22:55;14.60;99.90
67901;DHT22;54700;51.796;10.956;2023-08-06T05:25:22;14.60;99.90
67901;DHT22;54700;51.796;10.956;2023-08-06T05:27:49;14.70;99.90
67901;DHT22;54700;51.796;10.956;2023-08-06T05:30:15;14.70;99.90
67901;DHT22;54700;51.796;10.956;2023-08-06T05:32:42;14.80;99.90
67901;DHT22;54700;51.796;10.956;2023-08-06T05:35:11;14.80;99.90
67901;DHT22;54700;51.796;10.956;2023-08-06T05:37:38;14.80;99.90
67901;DHT22;54700;51.796;10.956;2023-08-06T05:40:05;14.80;99.90
67901;DHT22;54700;51.796;10.956;2023-08-06T05:42:32;14.80;99.90
67901;DHT22;54700;51.796;10.956;2023-08-06T05:44:59;14.90;99.90
67901;DHT22;54700;51.796;10.956;2023-08-06T05:47:26;14.90;99.90
67901;DHT22;54700;51.796;10.956;2023-08-06T05:49:53;15.00;99.90
67901;DHT22;54700;51.796;10.956;2023-08-06T05:52:21;15.00;99.90
67901;DHT22;54700;51.796;10.956;2023-08-06T05:54:48;15.00;99.90
67901;DHT22;54700;51.796;10.956;2023-08-06T05:57:15;15.10;99.90
67901;DHT22;54700;51.796;10.956;2023-08-06T05:59:42;15.20;99.90
67901;DHT22;54700;51.796;10.956;2023-08-06T06:02:09;15.20;99.90
67901;DHT22;54700;51.796;10.956;2023-08-06T06:04:36;15.20;99.90
67901;DHT22;54700;51.796;10.956;2023-08-06T06:07:04;15.20;99.90
67901;DHT22;54700;51.796;10.956;2023-08-06T06:09:32;15.30;99.90
67901;DHT22;54700;51.796;10.956;2023-08-06T06:11:59;15.40;99.90
67901;DHT22;54700;51.796;10.956;2023-08-06T06:14:26;15.50;99.50
67901;DHT22;54700;51.796;10.956;2023-08-06T06:16:56;15.60;97.50
67901;DHT22;54700;51.796;10.956;2023-08-06T06:19:23;15.70;97.60
67901;DHT22;54700;51.796;10.956;2023-08-06T06:21:51;15.80;95.50
67901;DHT22;54700;51.796;10.956;2023-08-06T06:24:22;15.90;96.50
67901;DHT22;54700;51.796;10.956;2023-08-06T06:26:52;15.90;96.50
67901;DHT22;54700;51.796;10.956;2023-08-06T06:29:19;16.00;96.30
67901;DHT22;54700;51.796;10.956;2023-08-06T06:31:48;16.10;96.10
67901;DHT22;54700;51.796;10.956;2023-08-06T06:34:16;16.10;95.00
67901;DHT22;54700;51.796;10.956;2023-08-06T06:36:43;16.20;95.30
67901;DHT22;54700;51.796;10.956;2023-08-06T06:39:11;16.20;96.30
67901;DHT22;54700;51.796;10.956;2023-08-06T06:41:39;16.30;96.50
67901;DHT22;54700;51.796;10.956;2023-08-06T06:44:08;16.40;96.70
67901;DHT22;54700;51.796;10.956;2023-08-06T06:46:38;16.50;96.60
67901;DHT22;54700;51.796;10.956;2023-08-06T06:49:05;16.60;95.50
67901;DHT22;54700;51.796;10.956;2023-08-06T06:51:33;16.70;94.30
67901;DHT22;54700;51.796;10.956;2023-08-06T06:54:03;16.70;93.50
67901;DHT22;54700;51.796;10.956;2023-08-06T06:56:30;16.70;93.70
67901;DHT22;54700;51.796;10.956;2023-08-06T06:58:58;16.80;94.20
67901;DHT22;54700;51.796;10.956;2023-08-06T07:01:27;16.80;93.20
67901;DHT22;54700;51.796;10.956;2023-08-06T07:03:55;16.90;93.40
67901;DHT22;54700;51.796;10.956;2023-08-06T07:06:24;16.90;93.40
67901;DHT22;54700;51.796;10.956;2023-08-06T07:08:53;17.00;93.70
67901;DHT22;54700;51.796;10.956;2023-08-06T07:11:20;17.10;94.20
67901;DHT22;54700;51.796;10.956;2023-08-06T07:13:55;17.20;93.50
67901;DHT22;54700;51.796;10.956;2023-08-06T07:16:23;17.20;92.30
67901;DHT22;54700;51.796;10.956;2023-08-06T07:18:54;17.20;92.50
67901;DHT22;54700;51.796;10.956;2023-08-06T07:21:21;17.30;92.50
67901;DHT22;54700;51.796;10.956;2023-08-06T07:23:50;17.40;91.90
67901;DHT22;54700;51.796;10.956;2023-08-06T07:26:17;17.40;92.00
67901;DHT22;54700;51.796;10.956;2023-08-06T07:28:44;17.40;91.30
67901;DHT22;54700;51.796;10.956;2023-08-06T07:31:12;17.50;91.90
67901;DHT22;54700;51.796;10.956;2023-08-06T07:33:39;17.60;92.00
67901;DHT22;54700;51.796;10.956;2023-08-06T07:36:08;17.60;91.50
67901;DHT22;54700;51.796;10.956;2023-08-06T07:38:36;17.70;91.80
67901;DHT22;54700;51.796;10.956;2023-08-06T07:41:04;17.80;92.00
67901;DHT22;54700;51.796;10.956;2023-08-06T07:43:32;17.90;91.80
67901;DHT22;54700;51.796;10.956;2023-08-06T07:46:01;18.10;91.70
67901;DHT22;54700;51.796;10.956;2023-08-06T07:48:28;18.20;90.40
67901;DHT22;54700;51.796;10.956;2023-08-06T07:50:55;18.30;90.10
67901;DHT22;54700;51.796;10.956;2023-08-06T07:53:25;18.40;88.00
67901;DHT22;54700;51.796;10.956;2023-08-06T07:55:54;18.50;84.10
67901;DHT22;54700;51.796;10.956;2023-08-06T07:58:22;18.50;86.20
67901;DHT22;54700;51.796;10.956;2023-08-06T08:00:50;18.60;85.60
67901;DHT22;54700;51.796;10.956;2023-08-06T08:03:17;18.70;86.00
67901;DHT22;54700;51.796;10.956;2023-08-06T08:05:45;18.80;86.30
67901;DHT22;54700;51.796;10.956;2023-08-06T08:08:13;18.80;90.30
67901;DHT22;54700;51.796;10.956;2023-08-06T08:10:41;18.90;90.60
67901;DHT22;54700;51.796;10.956;2023-08-06T08:13:09;19.00;91.40
67901;DHT22;54700;51.796;10.956;2023-08-06T08:18:12;18.80;92.40
67901;DHT22;54700;51.796;10.956;2023-08-06T08:20:39;18.70;92.40
67901;DHT22;54700;51.796;10.956;2023-08-06T08:23:05;18.60;91.80
67901;DHT22;54700;51.796;10.956;2023-08-06T08:25:32;18.50;91.40
67901;DHT22;54700;51.796;10.956;2023-08-06T08:28:00;18.50;90.70
67901;DHT22;54700;51.796;10.956;2023-08-06T08:30:27;18.50;88.80
67901;DHT22;54700;51.796;10.956;2023-08-06T08:32:54;18.50;88.70
67901;DHT22;54700;51.796;10.956;2023-08-06T08:35:21;18.60;86.40
67901;DHT22;54700;51.796;10.956;2023-08-06T08:37:48;18.70;86.20
67901;DHT22;54700;51.796;10.956;2023-08-06T08:40:15;18.80;87.10
67901;DHT22;54700;51.796;10.956;2023-08-06T08:42:42;18.80;83.30
67901;DHT22;54700;51.796;10.956;2023-08-06T08:45:12;18.80;76.60
67901;DHT22;54700;51.796;10.956;2023-08-06T08:47:40;18.70;76.30
67901;DHT22;54700;51.796;10.956;2023-08-06T08:50:08;18.70;76.10
67901;DHT22;54700;51.796;10.956;2023-08-06T08:52:36;18.70;72.70
67901;DHT22;54700;51.796;10.956;2023-08-06T08:55:05;18.80;73.40
67901;DHT22;54700;51.796;10.956;2023-08-06T08:57:33;18.90;73.40
67901;DHT22;54700;51.796;10.956;2023-08-06T09:00:00;19.00;71.60
67901;DHT22;54700;51.796;10.956;2023-08-06T09:02:29;19.10;73.00
67901;DHT22;54700;51.796;10.956;2023-08-06T09:04:59;19.30;72.60
67901;DHT22;54700;51.796;10.956;2023-08-06T09:07:29;19.30;72.50
67901;DHT22;54700;51.796;10.956;2023-08-06T09:09:59;19.30;69.30
67901;DHT22;54700;51.796;10.956;2023-08-06T09:12:29;19.40;72.00
67901;DHT22;54700;51.796;10.956;2023-08-06T09:14:56;19.40;71.50
67901;DHT22;54700;51.796;10.956;2023-08-06T09:17:23;19.50;72.90
67901;DHT22;54700;51.796;10.956;2023-08-06T09:19:52;19.40;71.50
67901;DHT22;54700;51.796;10.956;2023-08-06T09:22:19;19.30;73.00
67901;DHT22;54700;51.796;10.956;2023-08-06T09:24:45;19.30;74.40
67901;DHT22;54700;51.796;10.956;2023-08-06T09:27:12;19.20;72.80
67901;DHT22;54700;51.796;10.956;2023-08-06T09:29:41;19.20;74.50
67901;DHT22;54700;51.796;10.956;2023-08-06T09:32:09;19.20;74.30
67901;DHT22;54700;51.796;10.956;2023-08-06T09:34:38;19.10;75.10
67901;DHT22;54700;51.796;10.956;2023-08-06T09:37:07;19.10;74.70
67901;DHT22;54700;51.796;10.956;2023-08-06T09:39:36;19.10;75.30
67901;DHT22;54700;51.796;10.956;2023-08-06T09:42:04;19.20;75.00
67901;DHT22;54700;51.796;10.956;2023-08-06T09:44:31;19.20;73.20
67901;DHT22;54700;51.796;10.956;2023-08-06T09:46:59;19.20;73.70
67901;DHT22;54700;51.796;10.956;2023-08-06T09:49:28;19.40;73.80
67901;DHT22;54700;51.796;10.956;2023-08-06T09:52:09;19.40;73.00
67901;DHT22;54700;51.796;10.956;2023-08-06T09:54:38;19.50;70.70
67901;DHT22;54700;51.796;10.956;2023-08-06T09:57:05;19.60;70.10
67901;DHT22;54700;51.796;10.956;2023-08-06T09:59:32;19.60;71.60
67901;DHT22;54700;51.796;10.956;2023-08-06T10:02:00;19.80;70.60
67901;DHT22;54700;51.796;10.956;2023-08-06T10:04:27;19.90;68.80
67901;DHT22;54700;51.796;10.956;2023-08-06T10:06:55;19.80;67.20
67901;DHT22;54700;51.796;10.956;2023-08-06T10:09:25;19.80;67.90
67901;DHT22;54700;51.796;10.956;2023-08-06T10:11:52;19.80;66.20
67901;DHT22;54700;51.796;10.956;2023-08-06T10:14:21;19.90;66.10
67901;DHT22;54700;51.796;10.956;2023-08-06T10:16:51;20.00;66.60
67901;DHT22;54700;51.796;10.956;2023-08-06T10:19:19;20.00;65.20
67901;DHT22;54700;51.796;10.956;2023-08-06T10:24:46;20.10;66.10
67901;DHT22;54700;51.796;10.956;2023-08-06T10:27:19;20.10;64.40
67901;DHT22;54700;51.796;10.956;2023-08-06T10:29:47;20.10;63.70
67901;DHT22;54700;51.796;10.956;2023-08-06T10:32:14;20.00;63.60
67901;DHT22;54700;51.796;10.956;2023-08-06T10:34:55;20.00;61.10
67901;DHT22;54700;51.796;10.956;2023-08-06T10:37:34;20.10;63.40
67901;DHT22;54700;51.796;10.956;2023-08-06T10:40:06;20.10;60.00
67901;DHT22;54700;51.796;10.956;2023-08-06T10:42:40;20.10;60.90
67901;DHT22;54700;51.796;10.956;2023-08-06T10:45:18;20.30;61.00
67901;DHT22;54700;51.796;10.956;2023-08-06T10:47:54;20.40;61.50
67901;DHT22;54700;51.796;10.956;2023-08-06T10:50:34;20.40;57.80
67901;DHT22;54700;51.796;10.956;2023-08-06T10:55:49;20.30;53.80
67901;DHT22;54700;51.796;10.956;2023-08-06T10:58:16;20.30;53.70
67901;DHT22;54700;51.796;10.956;2023-08-06T11:00:43;20.30;55.60
67901;DHT22;54700;51.796;10.956;2023-08-06T11:03:10;20.40;55.70
67901;DHT22;54700;51.796;10.956;2023-08-06T11:05:37;20.50;56.30
67901;DHT22;54700;51.796;10.956;2023-08-06T11:08:04;20.50;57.70
67901;DHT22;54700;51.796;10.956;2023-08-06T11:10:32;20.60;58.90
67901;DHT22;54700;51.796;10.956;2023-08-06T11:13:02;20.70;58.80
67901;DHT22;54700;51.796;10.956;2023-08-06T11:15:30;20.60;60.10
67901;DHT22;54700;51.796;10.956;2023-08-06T11:17:57;20.60;60.40
67901;DHT22;54700;51.796;10.956;2023-08-06T11:20:24;20.60;60.80
67901;DHT22;54700;51.796;10.956;2023-08-06T11:22:54;20.60;62.00
67901;DHT22;54700;51.796;10.956;2023-08-06T11:25:21;20.60;63.80
67901;DHT22;54700;51.796;10.956;2023-08-06T11:27:48;20.70;62.30
67901;DHT22;54700;51.796;10.956;2023-08-06T11:30:18;20.80;61.70
67901;DHT22;54700;51.796;10.956;2023-08-06T11:32:45;20.80;60.60
67901;DHT22;54700;51.796;10.956;2023-08-06T11:35:13;20.90;61.50
67901;DHT22;54700;51.796;10.956;2023-08-06T11:37:43;20.80;59.70
67901;DHT22;54700;51.796;10.956;2023-08-06T11:40:11;20.90;59.90
67901;DHT22;54700;51.796;10.956;2023-08-06T11:42:38;20.90;61.20
67901;DHT22;54700;51.796;10.956;2023-08-06T11:45:05;20.90;59.30
67901;DHT22;54700;51.796;10.956;2023-08-06T11:47:37;20.80;60.60
67901;DHT22;54700;51.796;10.956;2023-08-06T11:50:05;20.80;62.70
67901;DHT22;54700;51.796;10.956;2023-08-06T11:52:32;20.70;61.10
67901;DHT22;54700;51.796;10.956;2023-08-06T11:55:06;20.60;61.00
67901;DHT22;54700;51.796;10.956;2023-08-06T11:57:43;20.60;62.30
67901;DHT22;54700;51.796;10.956;2023-08-06T12:00:12;20.60;58.50
67901;DHT22;54700;51.796;10.956;2023-08-06T12:02:41;20.50;56.60
67901;DHT22;54700;51.796;10.956;2023-08-06T12:05:28;20.50;58.50
67901;DHT22;54700;51.796;10.956;2023-08-06T12:07:57;20.50;54.10
67901;DHT22;54700;51.796;10.956;2023-08-06T12:10:27;20.50;53.90
67901;DHT22;54700;51.796;10.956;2023-08-06T12:12:55;20.60;58.10
67901;DHT22;54700;51.796;10.956;2023-08-06T12:15:24;20.50;53.30
67901;DHT22;54700;51.796;10.956;2023-08-06T12:17:55;20.50;54.00
67901;DHT22;54700;51.796;10.956;2023-08-06T12:20:22;20.70;56.20
67901;DHT22;54700;51.796;10.956;2023-08-06T12:22:55;20.70;57.70
67901;DHT22;54700;51.796;10.956;2023-08-06T12:25:22;20.90;56.70
67901;DHT22;54700;51.796;10.956;2023-08-06T12:27:49;21.00;54.00
67901;DHT22;54700;51.796;10.956;2023-08-06T12:30:19;21.10;54.80
67901;DHT22;54700;51.796;10.956;2023-08-06T12:32:46;21.30;53.20
67901;DHT22;54700;51.796;10.956;2023-08-06T12:35:14;21.30;52.90
67901;DHT22;54700;51.796;10.956;2023-08-06T12:37:41;21.40;51.80
67901;DHT22;54700;51.796;10.956;2023-08-06T12:40:09;21.40;52.10
67901;DHT22;54700;51.796;10.956;2023-08-06T12:42:37;21.50;53.80
67901;DHT22;54700;51.796;10.956;2023-08-06T12:45:07;21.50;54.90
67901;DHT22;54700;51.796;10.956;2023-08-06T12:47:34;21.20;55.30
67901;DHT22;54700;51.796;10.956;2023-08-06T12:50:01;21.10;57.70
67901;DHT22;54700;51.796;10.956;2023-08-06T12:52:30;21.00;58.40
67901;DHT22;54700;51.796;10.956;2023-08-06T12:54:57;21.00;59.00
67901;DHT22;54700;51.796;10.956;2023-08-06T12:57:24;21.00;58.80
67901;DHT22;54700;51.796;10.956;2023-08-06T12:59:52;21.20;58.80
67901;DHT22;54700;51.796;10.956;2023-08-06T13:02:19;21.40;57.40
67901;DHT22;54700;51.796;10.956;2023-08-06T13:04:46;21.40;56.10
67901;DHT22;54700;51.796;10.956;2023-08-06T13:07:14;21.30;59.30
67901;DHT22;54700;51.796;10.956;2023-08-06T13:09:42;21.20;60.00
67901;DHT22;54700;51.796;10.956;2023-08-06T13:12:09;21.00;60.70
67901;DHT22;54700;51.796;10.956;2023-08-06T13:14:36;20.90;61.70
67901;DHT22;54700;51.796;10.956;2023-08-06T13:17:03;20.80;63.30
67901;DHT22;54700;51.796;10.956;2023-08-06T13:19:32;20.70;62.80
67901;DHT22;54700;51.796;10.956;2023-08-06T13:22:00;20.60;62.90
67901;DHT22;54700;51.796;10.956;2023-08-06T13:24:30;20.60;62.50
67901;DHT22;54700;51.796;10.956;2023-08-06T13:26:59;20.70;61.60
67901;DHT22;54700;51.796;10.956;2023-08-06T13:29:26;20.80;62.00
67901;DHT22;54700;51.796;10.956;2023-08-06T13:31:53;20.80;61.80
67901;DHT22;54700;51.796;10.956;2023-08-06T13:34:21;20.90;61.00
67901;DHT22;54700;51.796;10.956;2023-08-06T13:36:47;20.90;61.00
67901;DHT22;54700;51.796;10.956;2023-08-06T13:39:15;20.90;59.70
67901;DHT22;54700;51.796;10.956;2023-08-06T13:41:42;20.90;58.40
67901;DHT22;54700;51.796;10.956;2023-08-06T13:44:11;20.90;59.20
67901;DHT22;54700;51.796;10.956;2023-08-06T13:46:39;21.00;59.10
67901;DHT22;54700;51.796;10.956;2023-08-06T13:49:06;21.10;59.20
67901;DHT22;54700;51.796;10.956;2023-08-06T13:51:33;21.10;58.00
67901;DHT22;54700;51.796;10.956;2023-08-06T13:54:03;21.10;57.50
67901;DHT22;54700;51.796;10.956;2023-08-06T13:56:31;21.10;59.40
67901;DHT22;54700;51.796;10.956;2023-08-06T13:58:59;21.20;59.40
67901;DHT22;54700;51.796;10.956;2023-08-06T14:01:27;21.20;59.50
67901;DHT22;54700;51.796;10.956;2023-08-06T14:03:54;21.20;59.20
67901;DHT22;54700;51.796;10.956;2023-08-06T14:06:21;21.10;59.00
67901;DHT22;54700;51.796;10.956;2023-08-06T14:08:48;21.00;60.10
67901;DHT22;54700;51.796;10.956;2023-08-06T14:11:15;21.00;61.10
67901;DHT22;54700;51.796;10.956;2023-08-06T14:13:42;20.90;60.00
67901;DHT22;54700;51.796;10.956;2023-08-06T14:16:11;20.80;61.80
67901;DHT22;54700;51.796;10.956;2023-08-06T14:18:39;20.80;61.60
67901;DHT22;54700;51.796;10.956;2023-08-06T14:21:06;20.80;61.40
67901;DHT22;54700;51.796;10.956;2023-08-06T14:23:33;20.80;62.30
67901;DHT22;54700;51.796;10.956;2023-08-06T14:26:01;20.70;62.80
67901;DHT22;54700;51.796;10.956;2023-08-06T14:28:28;20.70;64.00
67901;DHT22;54700;51.796;10.956;2023-08-06T14:30:55;20.70;62.00
67901;DHT22;54700;51.796;10.956;2023-08-06T14:33:21;20.70;63.60
67901;DHT22;54700;51.796;10.956;2023-08-06T14:35:50;20.60;65.10
67901;DHT22;54700;51.796;10.956;2023-08-06T14:38:17;20.60;64.00
67901;DHT22;54700;51.796;10.956;2023-08-06T14:40:44;20.60;63.70
67901;DHT22;54700;51.796;10.956;2023-08-06T14:43:11;20.60;63.50
67901;DHT22;54700;51.796;10.956;2023-08-06T14:45:38;20.60;63.60
67901;DHT22;54700;51.796;10.956;2023-08-06T14:48:05;20.70;63.50
67901;DHT22;54700;51.796;10.956;2023-08-06T14:50:34;20.70;62.90
67901;DHT22;54700;51.796;10.956;2023-08-06T14:53:03;20.90;63.10
67901;DHT22;54700;51.796;10.956;2023-08-06T14:55:31;21.00;60.80
67901;DHT22;54700;51.796;10.956;2023-08-06T14:57:58;21.10;59.80
67901;DHT22;54700;51.796;10.956;2023-08-06T15:00:25;21.10;61.60
67901;DHT22;54700;51.796;10.956;2023-08-06T15:02:52;21.10;60.80
67901;DHT22;54700;51.796;10.956;2023-08-06T15:05:20;21.20;60.40
67901;DHT22;54700;51.796;10.956;2023-08-06T15:07:47;21.30;60.40
67901;DHT22;54700;51.796;10.956;2023-08-06T15:10:15;21.40;60.00
67901;DHT22;54700;51.796;10.956;2023-08-06T15:12:43;21.50;60.90
67901;DHT22;54700;51.796;10.956;2023-08-06T15:15:10;21.50;58.80
67901;DHT22;54700;51.796;10.956;2023-08-06T15:17:37;21.40;60.40
67901;DHT22;54700;51.796;10.956;2023-08-06T15:20:05;21.40;59.00
67901;DHT22;54700;51.796;10.956;2023-08-06T15:22:33;21.10;59.10
67901;DHT22;54700;51.796;10.956;2023-08-06T15:25:00;21.00;59.60
67901;DHT22;54700;51.796;10.956;2023-08-06T15:27:30;20.90;60.50
67901;DHT22;54700;51.796;10.956;2023-08-06T15:29:59;20.80;60.80
67901;DHT22;54700;51.796;10.956;2023-08-06T15:32:26;20.80;60.10
67901;DHT22;54700;51.796;10.956;2023-08-06T15:34:53;20.70;59.60
67901;DHT22;54700;51.796;10.956;2023-08-06T15:37:21;20.70;60.10